• Join FlightAware (Why Join?)
  • Login
  • US Flag 
02:20PM EDT


 

Airport Tracker/Info


-or-


 

Live Flight TrackerFlight Track Log ✈ SKW6345 ✈ 03-Aug-2013 ✈ KSFO - KBZN

Flight Track Log - Related Links

Times and Time Zones

All times are in EDT time to prevent confusion due to time zone crossing. See the SKW6345 flight status page for this flight to view local times or setup timezone preferences in your user account.

Time Position Orientation Groundspeed Altitude Reporting Facility
EDT Latitude Longitude Course Direction KTS MPH feet Rate Location/Type
11:30AM 37.6500 -122.3500 38° Northeast 173 199 1,700  Level Northern Cal TRACON
11:31AM 37.6833 -122.3000 50° Northeast 226 260 3,600 2,040 Climbing Northern Cal TRACON
11:32AM 37.7333 -122.2333 47° Northeast 270 311 5,800 2,100 Climbing Northern Cal TRACON
11:33AM 37.7124 -122.2710 38° Northeast  Level FlightAware Approximate
11:34AM 37.8222 -122.1611 38° Northeast  Level FlightAware Approximate
11:34AM 37.8506 -122.1272 36° Northeast 289 333 9,600  Level Oakland Center
11:35AM 37.9321 -122.0512 38° Northeast  Level FlightAware Approximate
11:35AM 37.9167 -122.0622 38° Northeast 298 343 11,700  Level Oakland Center
11:36AM 37.9861 -121.9967 37° Northeast 309 356 13,700 1,740 Climbing Oakland Center
11:37AM 38.0589 -121.9261 37° Northeast 320 368 15,300 1,200 Climbing Oakland Center
11:38AM 38.1372 -121.8533 36° Northeast 335 386 16,200 1,080 Climbing Oakland Center
11:39AM 38.2267 -121.7808 32° Northeast 363 418 17,600 1,320 Climbing Oakland Center
11:40AM 38.3153 -121.7075 33° Northeast 378 435 18,900 1,320 Climbing Oakland Center
11:41AM 38.4236 -121.6169 33° Northeast 386 444 20,300 1,080 Climbing Oakland Center
11:42AM 38.5011 -121.5525 33° Northeast 393 452 21,200 900 Climbing Oakland Center
11:43AM 38.6114 -121.4606 33° Northeast 406 467 22,200 900 Climbing Oakland Center
11:44AM 38.6975 -121.3897 33° Northeast 412 474 23,100 840 Climbing Oakland Center
11:45AM 38.7950 -121.3047 34° Northeast 417 480 24,000 840 Climbing Oakland Center
11:46AM 38.9142 -121.2039 33° Northeast 423 487 24,900 780 Climbing Oakland Center
11:47AM 39.0139 -121.1186 34° Northeast 428 493 25,700 660 Climbing Oakland Center
11:48AM 39.1153 -121.0317 34° Northeast 436 502 26,300 540 Climbing Oakland Center
11:49AM 39.2181 -120.9453 33° Northeast 439 505 26,900 540 Climbing Oakland Center
11:50AM 39.3206 -120.8556 34° Northeast 445 512 27,400 480 Climbing Oakland Center
11:51AM 39.4250 -120.7672 33° Northeast 448 516 27,900 420 Climbing Oakland Center
11:52AM 39.5294 -120.6750 34° Northeast 454 522 28,300 360 Climbing Oakland Center
11:53AM 39.6347 -120.5839 34° Northeast 456 525 28,700 420 Climbing Oakland Center
11:54AM 39.7408 -120.4917 34° Northeast 460 529 29,200 480 Climbing Oakland Center
11:55AM 39.8486 -120.3983 34° Northeast 464 534 29,700 540 Climbing Oakland Center
11:56AM 39.9556 -120.3042 34° Northeast 464 534 30,300 480 Climbing Oakland Center
11:57AM 40.0786 -120.1967 34° Northeast 468 539 30,800 480 Climbing Oakland Center
11:58AM 40.1853 -120.1011 34° Northeast 466 536 31,300 540 Climbing Oakland Center
11:59AM 40.2933 -120.0061 34° Northeast 467 537 31,900 480 Climbing Oakland Center
12:00PM 40.4019 -119.9089 34° Northeast 469 540 32,400 480 Climbing Oakland Center
12:01PM 40.5081 -119.8139 34° Northeast 464 534 32,900 240 Climbing Oakland Center
12:02PM 40.6192 -119.7147 34° Northeast 459 528 33,000  Climbing Oakland Center
12:03PM 40.7283 -119.6158 34° Northeast 472 543 33,000  Level Oakland Center
12:04PM 40.8464 -119.5086 34° Northeast 487 560 33,000  Level Oakland Center
12:05PM 40.9547 -119.4100 34° Northeast 492 566 33,000  Level Oakland Center
12:06PM 41.0819 -119.2917 35° Northeast 497 572 33,000  Level Oakland Center
12:07PM 41.1917 -119.1917 34° Northeast 499 574 33,000  Level Oakland Center
12:08PM 41.3222 -119.0714 35° Northeast 506 582 33,000  Level Oakland Center
12:09PM 41.4339 -118.9686 35° Northeast 507 583 33,000  Level Oakland Center
12:10PM 41.5447 -118.8644 35° Northeast 506 582 33,000  Level Oakland Center
12:11PM 41.6719 -118.7464 35° Northeast 501 577 33,000  Level Oakland Center
12:13PM 41.8375 -118.5908 35° Northeast 500 575 33,000  Level Salt Lake Center
12:14PM 41.9653 -118.4717 35° Northeast 500 575 33,000  Level Salt Lake Center
12:15PM 42.0742 -118.3672 35° Northeast 500 575 33,000  Level Salt Lake Center
12:16PM 42.1828 -118.2622 36° Northeast 501 577 33,000  Level Salt Lake Center
12:17PM 42.3097 -118.1428 35° Northeast 498 573 33,000  Level Salt Lake Center
12:18PM 42.4336 -118.0175 37° Northeast 501 577 33,000  Level Salt Lake Center
12:19PM 42.5408 -117.9114 36° Northeast 500 575 33,000  Level Salt Lake Center
12:20PM 42.6358 -117.7847 44° Northeast 502 578 33,000  Level Salt Lake Center
12:21PM 42.7283 -117.6128 54° Northeast 502 578 33,000  Level Salt Lake Center
12:22PM 42.8072 -117.4661 54° Northeast 502 578 33,000  Level Salt Lake Center
12:23PM 42.8994 -117.2947 54° Northeast 501 577 33,000  Level Salt Lake Center
12:24PM 42.9783 -117.1464 54° Northeast 503 579 33,000  Level Salt Lake Center
12:25PM 43.0706 -116.9742 54° Northeast 504 580 33,000  Level Salt Lake Center
12:26PM 43.1492 -116.8244 54° Northeast 506 582 33,000  Level Salt Lake Center
12:27PM 43.2414 -116.6511 54° Northeast 505 581 33,000  Level Salt Lake Center
12:28PM 43.3197 -116.5006 54° Northeast 507 583 33,000  Level Salt Lake Center
12:29PM 43.4117 -116.3253 54° Northeast 508 585 33,000  Level Salt Lake Center
12:30PM 43.4903 -116.1744 54° Northeast 508 585 33,000  Level Salt Lake Center
12:31PM 43.5814 -115.9967 55° Northeast 510 587 33,000  Level Salt Lake Center
12:33PM 43.6592 -115.8447 55° Northeast 508 585 33,000  Level Salt Lake Center
12:34PM 43.7494 -115.6669 55° Northeast 509 586 33,000  Level Salt Lake Center
12:35PM 43.8269 -115.5128 55° Northeast 512 589 33,000  Level Salt Lake Center
12:36PM 43.9175 -115.3331 55° Northeast 511 588 33,000  Level Salt Lake Center
12:37PM 43.9950 -115.1792 55° Northeast 511 588 33,000  Level Salt Lake Center
12:38PM 44.0850 -114.9972 55° Northeast 513 590 33,000  Level Salt Lake Center
12:39PM 44.1617 -114.8419 55° Northeast 510 587 33,000  Level Salt Lake Center
12:40PM 44.2517 -114.6592 55° Northeast 512 589 33,000  Level Salt Lake Center
12:41PM 44.3289 -114.5011 56° Northeast 514 592 33,000  Level Salt Lake Center
12:42PM 44.4194 -114.3175 55° Northeast 514 592 33,000  Level Salt Lake Center
12:43PM 44.4967 -114.1589 56° Northeast 515 593 33,000  Level Salt Lake Center
12:44PM 44.5853 -113.9719 56° Northeast 517 595 33,000  Level Salt Lake Center
12:45PM 44.6583 -113.8114 57° Northeast 512 589 33,000  Level Salt Lake Center
12:46PM 44.7339 -113.6492 57° Northeast 515 593 33,000  Level Salt Lake Center
12:47PM 44.8239 -113.4608 56° Northeast 517 595 33,000  Level Salt Lake Center
12:48PM 44.9003 -113.2989 56° Northeast 517 595 33,000  Level Salt Lake Center
12:49PM 44.9897 -113.1083 56° Northeast 520 598 33,000  Level Salt Lake Center
12:50PM 45.0719 -112.9289 57° Northeast 520 598 33,000  Level Salt Lake Center
12:51PM 45.1531 -112.7542 57° Northeast 518 596 33,000 -780 Level Salt Lake Center
12:52PM 45.2292 -112.5881 57° Northeast 520 598 31,400 -2,460 Descending Salt Lake Center
12:53PM 45.3111 -112.3892 60° Northeast 521 600 28,000 -2,940 Descending Salt Lake Center
12:54PM 45.3706 -112.2356 61° Northeast 506 582 25,300 -2,760 Descending Salt Lake Center
12:55PM 45.4350 -112.0694 61° Northeast 485 558 22,300 -3,360 Descending Salt Lake Center
12:56PM 45.5081 -111.8783 61° Northeast 461 531 18,400 -3,420 Descending Salt Lake Center
12:57PM 45.5658 -111.7281 61° Northeast 440 506 15,300 -2,640 Descending Salt Lake Center
12:58PM 45.6211 -111.5853 61° Northeast 417 480 13,000 -1,140 Descending Salt Lake Center
12:59PM 45.6639 -111.4714 60° Northeast 358 412 13,000 -600 Level Salt Lake Center
01:00PM 45.7007 -111.3485 60° Northeast  Level FlightAware Approximate
01:00PM 45.7186 -111.4019 42° Northeast 293 337 11,800  Level Salt Lake Center
01:01PM 45.7803 -111.3603 25° Northeast 263 303 10,300 -1,500 Descending Salt Lake Center
01:03PM 45.8322 -111.3403 15° North 217 250 8,700 -1,860 Descending Salt Lake Center
01:04PM 45.8844 -111.3236 13° North 187 215 6,500 -960 Descending Salt Lake Center
01:06PM 45.8300 -111.2253 128° Southeast 163 188 5,800 -600 Descending Salt Lake Center
01:07PM 45.7981 -111.1808 136° Southeast 162 186 4,700 -1,080 Descending Salt Lake Center